Time;durP1;ratioP1;P1;durP2;ratioP2;P2;SDS_P1;SDS_P2;PMS_P1;PMS_P2;Temp;Humidity;BMP_temperature;BMP_pressure;BME280_temperature;BME280_humidity;BME280_pressure;Samples;Min_cycle;Max_cycle;Signal;HPM_P1;HPM_P2
2023/05/19 00:01:25;;;;;;;4.17;1.80;;;8.90;99.90;;;;;;5201502;28;20461;-45
2023/05/19 00:04:00;;;;;;;6.10;2.43;;;8.90;99.90;;;;;;5200804;28;20447;-45
2023/05/19 00:06:32;;;;;;;3.50;1.80;;;8.80;99.90;;;;;;5203370;28;20470;-44
2023/05/19 00:09:10;;;;;;;5.40;1.90;;;8.80;99.90;;;;;;5205231;28;20433;-44
2023/05/19 00:11:41;;;;;;;4.07;1.97;;;8.70;99.90;;;;;;5202310;28;20433;-47
2023/05/19 00:14:12;;;;;;;2.70;1.97;;;8.70;99.90;;;;;;5205410;28;20939;-46
2023/05/19 00:16:43;;;;;;;7.43;1.80;;;8.70;99.90;;;;;;5202880;28;21169;-45
2023/05/19 00:19:15;;;;;;;3.90;2.27;;;8.60;99.90;;;;;;5204133;28;20231;-46
2023/05/19 00:21:46;;;;;;;5.03;2.00;;;8.60;99.90;;;;;;5202408;28;20188;-46
2023/05/19 00:24:16;;;;;;;3.27;2.23;;;8.50;99.90;;;;;;5202034;28;20796;-47
2023/05/19 00:26:47;;;;;;;11.73;3.03;;;8.50;99.90;;;;;;5203028;28;20226;-46
2023/05/19 00:29:18;;;;;;;4.53;2.27;;;8.50;99.90;;;;;;5200081;28;20569;-46
2023/05/19 00:31:48;;;;;;;6.60;1.77;;;8.40;99.90;;;;;;5202326;28;20188;-45
2023/05/19 00:34:19;;;;;;;1.80;1.70;;;8.40;99.90;;;;;;5202488;28;20184;-45
2023/05/19 00:36:50;;;;;;;12.63;2.57;;;8.40;99.90;;;;;;5199222;28;20210;-46
2023/05/19 00:39:21;;;;;;;4.57;1.80;;;8.40;99.90;;;;;;5200187;28;20757;-46
2023/05/19 00:41:51;;;;;;;11.37;2.50;;;8.30;99.90;;;;;;5203653;28;20438;-45
2023/05/19 00:44:22;;;;;;;7.70;2.33;;;8.30;99.90;;;;;;5202401;28;20203;-46
2023/05/19 00:46:53;;;;;;;3.20;1.60;;;8.30;99.90;;;;;;5198829;28;20215;-45
2023/05/19 00:49:23;;;;;;;7.00;2.37;;;8.20;99.90;;;;;;5202104;28;20211;-46
2023/05/19 00:51:54;;;;;;;4.93;2.27;;;8.20;99.90;;;;;;5201748;28;20179;-46
2023/05/19 00:54:25;;;;;;;4.73;2.20;;;8.20;99.90;;;;;;5204342;28;20198;-46
2023/05/19 00:56:58;;;;;;;7.87;2.50;;;8.20;99.90;;;;;;5205385;28;20477;-45
2023/05/19 00:59:29;;;;;;;2.53;2.13;;;8.20;99.90;;;;;;5200191;28;20450;-46
2023/05/19 01:02:01;;;;;;;4.90;2.37;;;8.20;99.90;;;;;;5199843;28;20500;-46
2023/05/19 01:04:34;;;;;;;8.73;2.67;;;8.20;99.90;;;;;;5203389;28;20192;-45
2023/05/19 01:07:06;;;;;;;4.53;2.27;;;8.20;99.90;;;;;;5199096;28;20887;-45
2023/05/19 01:09:37;;;;;;;4.83;2.40;;;8.10;99.90;;;;;;5199654;28;20442;-45
2023/05/19 01:12:07;;;;;;;3.27;2.20;;;8.10;99.90;;;;;;5201215;28;20822;-45
2023/05/19 01:14:38;;;;;;;5.10;1.77;;;8.10;99.90;;;;;;5198579;28;20194;-46
2023/05/19 01:17:26;;;;;;;8.13;2.20;;;8.00;99.90;;;;;;5178586;28;20226;-45
2023/05/19 01:20:07;;;;;;;7.60;2.47;;;8.00;99.90;;;;;;5199443;28;20713;-45
2023/05/19 01:23:05;;;;;;;6.40;2.60;;;8.00;99.90;;;;;;5197268;28;20442;-46
2023/05/19 01:25:54;;;;;;;5.30;2.03;;;7.90;99.90;;;;;;5202316;28;20988;-46
2023/05/19 01:28:46;;;;;;;4.70;2.20;;;7.80;99.90;;;;;;5199757;28;20430;-45
2023/05/19 01:31:22;;;;;;;4.97;2.40;;;7.80;99.90;;;;;;5192087;28;20787;-45
2023/05/19 01:33:54;;;;;;;5.63;2.10;;;7.80;99.90;;;;;;5195786;28;20444;-47
2023/05/19 01:36:25;;;;;;;7.03;2.07;;;7.80;99.90;;;;;;5200491;28;20485;-45
2023/05/19 01:38:58;;;;;;;4.37;2.10;;;7.70;99.90;;;;;;5197526;28;20522;-45
2023/05/19 01:41:31;;;;;;;6.03;2.40;;;7.70;99.90;;;;;;5200455;28;20456;-45
2023/05/19 01:44:02;;;;;;;3.80;1.83;;;7.70;99.90;;;;;;5194179;28;20507;-45
2023/05/19 01:46:33;;;;;;;3.00;2.43;;;7.70;99.90;;;;;;5198020;28;20511;-45
2023/05/19 01:49:05;;;;;;;5.60;2.10;;;7.70;99.90;;;;;;5198468;28;20177;-45
2023/05/19 01:51:36;;;;;;;3.93;1.57;;;7.70;99.90;;;;;;5197456;28;20593;-46
2023/05/19 01:54:06;;;;;;;3.80;2.77;;;7.70;99.90;;;;;;5212273;28;20554;-45
2023/05/19 01:56:48;;;;;;;5.57;2.50;;;7.60;99.90;;;;;;5196622;28;20293;-46
2023/05/19 01:59:37;;;;;;;3.20;2.07;;;7.60;99.90;;;;;;5197924;28;20194;-47
2023/05/19 02:02:49;;;;;;;6.90;2.47;;;7.60;99.90;;;;;;5207006;28;21274;-46
2023/05/19 02:05:59;;;;;;;14.53;2.17;;;7.50;99.90;;;;;;5159633;28;20477;-45
2023/05/19 02:08:50;;;;;;;19.67;2.27;;;7.50;99.90;;;;;;5194605;28;20458;-45
2023/05/19 02:11:30;;;;;;;1.00;1.00;;;7.50;99.90;;;;;;5199185;28;20435;-46
2023/05/19 02:14:06;;;;;;;4.87;1.97;;;7.50;99.90;;;;;;5199420;28;20556;-46
2023/05/19 02:16:38;;;;;;;4.90;2.13;;;7.50;99.90;;;;;;5198287;28;20492;-47
2023/05/19 02:19:26;;;;;;;1.93;1.83;;;7.50;99.90;;;;;;5197965;28;20442;-45
2023/05/19 02:21:57;;;;;;;7.57;2.00;;;7.50;99.90;;;;;;5198693;28;20573;-45
2023/05/19 02:24:27;;;;;;;4.97;2.10;;;7.40;99.90;;;;;;5201285;28;20782;-47
2023/05/19 02:26:58;;;;;;;4.57;2.00;;;7.50;99.90;;;;;;5200619;28;20346;-46
2023/05/19 02:29:29;;;;;;;3.10;2.17;;;7.50;99.90;;;;;;5197630;28;20205;-46
2023/05/19 02:32:00;;;;;;;2.30;2.10;;;7.40;99.90;;;;;;5197046;28;20183;-47
2023/05/19 02:34:31;;;;;;;2.07;1.87;;;7.30;99.90;;;;;;5199822;28;20226;-45
2023/05/19 02:37:02;;;;;;;4.03;1.67;;;7.30;99.90;;;;;;5199885;28;20981;-46
2023/05/19 02:39:34;;;;;;;15.80;2.13;;;7.40;99.90;;;;;;5199544;28;20278;-45
2023/05/19 02:42:04;;;;;;;18.90;1.90;;;7.40;99.90;;;;;;5199549;28;20760;-45
2023/05/19 02:44:35;;;;;;;1.93;1.50;;;7.40;99.90;;;;;;5181933;28;20557;-46
2023/05/19 02:47:06;;;;;;;9.43;2.20;;;7.40;99.90;;;;;;5197199;28;20266;-45
2023/05/19 02:49:36;;;;;;;5.53;2.43;;;7.50;99.90;;;;;;5197845;28;20237;-46
2023/05/19 02:52:07;;;;;;;3.80;2.07;;;7.50;99.90;;;;;;5198166;28;20182;-46
2023/05/19 02:54:37;;;;;;;7.53;2.37;;;7.50;99.90;;;;;;5200009;28;20266;-45
2023/05/19 02:57:08;;;;;;;2.73;2.30;;;7.50;99.90;;;;;;5211634;28;21758;-46
2023/05/19 02:59:39;;;;;;;5.73;2.03;;;7.50;99.90;;;;;;5197007;28;20187;-46
2023/05/19 03:02:10;;;;;;;7.10;1.90;;;7.50;99.90;;;;;;5197565;28;20438;-45
2023/05/19 03:04:41;;;;;;;2.07;1.97;;;7.50;99.90;;;;;;5201795;28;20914;-46
2023/05/19 03:07:12;;;;;;;4.60;2.37;;;7.60;99.90;;;;;;5179669;28;20214;-45
2023/05/19 03:09:43;;;;;;;2.43;1.90;;;7.60;99.90;;;;;;5202135;28;20464;-46
2023/05/19 03:12:13;;;;;;;3.70;2.13;;;7.60;99.90;;;;;;5204092;28;20218;-46
2023/05/19 03:14:44;;;;;;;4.20;2.53;;;7.60;99.90;;;;;;5200369;28;20259;-45
2023/05/19 03:17:14;;;;;;;2.80;2.40;;;7.60;99.90;;;;;;5202729;28;20211;-46
2023/05/19 03:19:45;;;;;;;12.60;2.40;;;7.60;99.90;;;;;;5203005;28;20210;-45
2023/05/19 03:22:17;;;;;;;4.97;1.70;;;7.60;99.90;;;;;;5205248;28;20291;-48
2023/05/19 03:24:49;;;;;;;4.47;1.83;;;7.50;99.90;;;;;;5199149;28;20203;-45
2023/05/19 03:27:20;;;;;;;4.47;1.47;;;7.60;99.90;;;;;;5203039;28;20454;-45
2023/05/19 03:29:52;;;;;;;4.43;1.60;;;7.50;99.90;;;;;;5202500;28;20787;-45
2023/05/19 03:32:23;;;;;;;5.20;1.90;;;7.50;99.90;;;;;;5199999;28;20409;-45
2023/05/19 03:34:53;;;;;;;2.33;2.23;;;7.60;99.90;;;;;;5202541;28;20520;-47
2023/05/19 03:37:24;;;;;;;4.80;1.80;;;7.60;99.90;;;;;;5202656;28;20226;-45
2023/05/19 03:39:55;;;;;;;4.30;2.20;;;7.70;99.90;;;;;;5203630;28;20188;-45
2023/05/19 03:42:25;;;;;;;4.03;2.50;;;7.60;99.90;;;;;;5201311;28;20649;-46
2023/05/19 03:44:56;;;;;;;9.30;2.13;;;7.70;99.90;;;;;;5200533;28;20195;-45
2023/05/19 03:47:26;;;;;;;9.63;2.50;;;7.70;99.90;;;;;;5200536;28;20203;-47
2023/05/19 03:49:57;;;;;;;3.83;1.80;;;7.80;99.90;;;;;;5203940;28;20187;-46
2023/05/19 03:52:28;;;;;;;3.57;2.57;;;7.80;99.90;;;;;;5203534;28;20194;-46
2023/05/19 03:54:58;;;;;;;4.77;1.70;;;7.80;99.90;;;;;;5201368;28;20263;-47
2023/05/19 03:57:29;;;;;;;4.43;2.60;;;7.80;99.90;;;;;;5202488;28;20195;-46
2023/05/19 03:59:59;;;;;;;5.67;2.27;;;7.90;99.90;;;;;;5201359;28;20179;-46
2023/05/19 04:02:30;;;;;;;6.30;2.13;;;8.00;99.90;;;;;;5201211;28;20788;-46
2023/05/19 04:05:03;;;;;;;2.80;1.50;;;8.00;99.90;;;;;;5199844;28;20318;-46
2023/05/19 04:07:34;;;;;;;7.67;2.50;;;8.10;99.90;;;;;;5198687;28;20208;-46
2023/05/19 04:10:06;;;;;;;2.90;1.93;;;8.20;99.90;;;;;;5200164;28;20446;-45
2023/05/19 04:12:36;;;;;;;5.13;1.60;;;8.30;99.90;;;;;;5203097;28;20441;-46
2023/05/19 04:15:10;;;;;;;4.63;2.50;;;8.30;99.90;;;;;;5197097;28;20545;-47
2023/05/19 04:17:41;;;;;;;5.50;2.50;;;8.40;99.90;;;;;;5203484;28;20212;-46
2023/05/19 04:20:11;;;;;;;5.53;2.30;;;8.50;99.90;;;;;;5198162;28;20445;-45
2023/05/19 04:22:42;;;;;;;3.87;1.90;;;8.70;99.90;;;;;;5201344;28;20281;-45
2023/05/19 04:25:13;;;;;;;4.53;2.20;;;8.80;99.90;;;;;;5207337;28;20203;-46
2023/05/19 04:27:43;;;;;;;6.20;2.60;;;8.80;99.90;;;;;;5204707;28;20200;-47
2023/05/19 04:30:20;;;;;;;9.23;2.43;;;8.90;99.90;;;;;;5199677;28;20684;-45
2023/05/19 04:32:51;;;;;;;5.07;2.10;;;8.90;99.90;;;;;;5200804;28;20184;-46
2023/05/19 04:35:22;;;;;;;3.80;1.73;;;9.00;99.90;;;;;;5212303;28;20791;-47
2023/05/19 04:37:53;;;;;;;7.30;1.90;;;9.10;99.90;;;;;;5196260;28;20223;-45
2023/05/19 04:40:23;;;;;;;2.03;1.83;;;9.20;99.90;;;;;;5203121;28;20263;-45
2023/05/19 04:42:54;;;;;;;7.10;2.30;;;9.30;99.90;;;;;;5195166;28;20680;-46
2023/05/19 04:45:25;;;;;;;3.73;2.00;;;9.50;99.90;;;;;;5198157;28;20322;-46
2023/05/19 04:47:56;;;;;;;4.33;2.00;;;9.60;99.90;;;;;;5197732;28;20299;-50
2023/05/19 04:50:29;;;;;;;5.67;2.30;;;9.80;99.90;;;;;;5198869;28;20182;-45
2023/05/19 04:53:00;;;;;;;6.00;2.30;;;10.00;99.90;;;;;;5201297;28;20435;-46
2023/05/19 04:55:31;;;;;;;3.10;1.80;;;10.20;99.90;;;;;;5176645;28;20473;-46
2023/05/19 04:58:03;;;;;;;2.27;1.70;;;10.50;99.90;;;;;;5198801;28;20184;-47
2023/05/19 05:00:34;;;;;;;4.20;1.67;;;10.80;99.90;;;;;;5196106;28;20441;-46
2023/05/19 05:03:05;;;;;;;2.30;2.00;;;11.20;99.90;;;;;;5197665;28;20466;-46
2023/05/19 05:05:36;;;;;;;2.93;1.97;;;11.80;99.90;;;;;;5199466;28;20520;-46
2023/05/19 05:08:08;;;;;;;4.40;1.80;;;12.70;99.90;;;;;;5199567;28;20438;-46
2023/05/19 05:10:39;;;;;;;2.00;1.90;;;13.90;96.90;;;;;;5201903;28;20241;-46
2023/05/19 05:13:10;;;;;;;3.27;2.07;;;15.10;89.20;;;;;;5202306;28;20426;-46
2023/05/19 05:15:40;;;;;;;2.63;2.00;;;15.70;79.50;;;;;;5200333;28;20176;-46
2023/05/19 05:18:12;;;;;;;6.47;2.13;;;16.10;72.10;;;;;;5200424;28;20191;-45
2023/05/19 05:20:44;;;;;;;2.33;2.10;;;16.20;69.20;;;;;;5199669;28;20211;-47
2023/05/19 05:23:15;;;;;;;8.30;2.43;;;16.10;67.10;;;;;;5201059;28;20442;-46
2023/05/19 05:25:46;;;;;;;1.73;1.57;;;15.80;67.60;;;;;;5199770;28;20509;-45
2023/05/19 05:28:17;;;;;;;3.70;2.07;;;15.80;67.40;;;;;;5199940;28;20965;-46
2023/05/19 05:30:48;;;;;;;4.00;2.87;;;15.70;67.70;;;;;;5196967;28;20450;-46
2023/05/19 05:33:20;;;;;;;4.20;1.80;;;15.70;67.30;;;;;;5189274;28;20183;-46
2023/05/19 05:35:51;;;;;;;7.20;2.07;;;15.50;67.30;;;;;;5198846;28;20203;-45
2023/05/19 05:38:23;;;;;;;4.00;2.00;;;14.80;69.00;;;;;;5199900;28;20454;-45
2023/05/19 05:40:53;;;;;;;4.97;1.80;;;14.40;71.10;;;;;;5191871;28;20274;-46
2023/05/19 05:43:24;;;;;;;2.70;1.90;;;13.90;74.10;;;;;;5194183;28;21295;-46
2023/05/19 05:45:55;;;;;;;3.50;1.97;;;13.70;76.30;;;;;;5201074;28;20207;-46
2023/05/19 05:48:26;;;;;;;3.03;2.20;;;13.40;78.10;;;;;;5196351;28;20176;-46
2023/05/19 05:50:58;;;;;;;4.10;2.40;;;13.20;80.20;;;;;;5200291;28;20912;-46
2023/05/19 05:53:31;;;;;;;2.87;2.00;;;13.20;83.30;;;;;;5211445;28;20973;-46
2023/05/19 05:56:02;;;;;;;4.87;2.83;;;13.50;84.10;;;;;;5183769;28;20480;-47
2023/05/19 05:58:33;;;;;;;5.30;2.13;;;13.90;82.10;;;;;;5202371;28;20763;-45
2023/05/19 06:01:04;;;;;;;1.77;1.67;;;14.70;79.50;;;;;;5201960;28;20431;-46
2023/05/19 06:03:36;;;;;;;4.23;2.13;;;16.20;73.30;;;;;;5200680;28;20457;-47
2023/05/19 06:06:07;;;;;;;2.13;1.93;;;18.10;65.00;;;;;;5199852;28;20590;-47
2023/05/19 06:08:38;;;;;;;4.13;2.00;;;19.30;56.20;;;;;;5183304;28;20442;-46
2023/05/19 06:11:08;;;;;;;5.27;2.50;;;19.50;53.90;;;;;;5199180;28;20191;-46
2023/05/19 06:13:42;;;;;;;3.50;2.23;;;18.70;53.30;;;;;;5196895;28;20629;-47
2023/05/19 06:16:13;;;;;;;2.43;1.97;;;17.70;55.60;;;;;;5198776;28;20767;-46
2023/05/19 06:18:43;;;;;;;1.90;1.80;;;17.50;57.00;;;;;;5200701;28;20563;-46
2023/05/19 06:21:14;;;;;;;2.10;1.80;;;17.90;56.90;;;;;;5198117;28;20184;-47
2023/05/19 06:23:44;;;;;;;4.63;2.17;;;19.50;54.60;;;;;;5198742;28;20188;-47
2023/05/19 06:26:15;;;;;;;5.70;2.30;;;21.40;49.80;;;;;;5201415;28;20782;-47
2023/05/19 06:28:46;;;;;;;2.40;2.20;;;22.60;45.30;;;;;;5200997;28;20280;-46
2023/05/19 06:31:16;;;;;;;6.17;2.40;;;23.30;44.00;;;;;;5199159;28;20190;-46
2023/05/19 06:33:47;;;;;;;7.07;2.70;;;24.40;41.30;;;;;;5194868;28;20214;-46
2023/05/19 06:36:18;;;;;;;2.50;1.80;;;24.70;39.70;;;;;;5199428;28;20290;-47
2023/05/19 06:38:48;;;;;;;1.73;1.63;;;24.50;38.80;;;;;;5201082;28;20179;-46
2023/05/19 06:41:20;;;;;;;3.97;2.13;;;23.40;40.70;;;;;;5199771;28;20245;-47
2023/05/19 06:43:51;;;;;;;3.40;1.90;;;23.00;41.20;;;;;;5197147;28;20229;-46
2023/05/19 06:46:21;;;;;;;2.33;2.13;;;23.50;41.10;;;;;;5200051;28;20938;-47
2023/05/19 06:48:52;;;;;;;3.77;2.23;;;23.50;40.40;;;;;;5199943;28;20179;-47
2023/05/19 06:51:22;;;;;;;5.77;2.70;;;23.10;40.90;;;;;;5198523;28;20184;-46
2023/05/19 06:53:53;;;;;;;2.30;2.10;;;22.60;41.70;;;;;;5197125;28;20545;-46
2023/05/19 06:56:23;;;;;;;6.70;2.50;;;21.90;42.20;;;;;;5197498;28;20203;-47
2023/05/19 06:58:54;;;;;;;3.60;2.23;;;21.80;42.80;;;;;;5193859;28;20234;-47
2023/05/19 07:01:26;;;;;;;1.80;1.67;;;21.90;43.10;;;;;;5192573;28;20451;-47
2023/05/19 07:03:57;;;;;;;3.00;1.93;;;21.80;43.90;;;;;;5198818;28;20274;-47
2023/05/19 07:06:28;;;;;;;3.13;2.27;;;22.40;43.00;;;;;;5200053;28;20535;-47
2023/05/19 07:08:58;;;;;;;2.70;2.17;;;23.00;42.20;;;;;;5197501;28;20791;-46
2023/05/19 07:11:29;;;;;;;5.53;1.83;;;23.40;41.40;;;;;;5190010;28;20679;-45
2023/05/19 07:14:00;;;;;;;6.23;2.17;;;24.00;41.30;;;;;;5194720;28;20211;-49
2023/05/19 07:16:31;;;;;;;2.13;1.90;;;24.30;39.50;;;;;;5195577;28;20310;-46
2023/05/19 07:19:01;;;;;;;2.77;2.47;;;23.70;40.10;;;;;;5193173;28;20444;-46
2023/05/19 07:21:32;;;;;;;2.90;2.10;;;23.30;41.30;;;;;;5187043;28;20309;-46
2023/05/19 07:24:03;;;;;;;2.33;2.23;;;23.00;41.30;;;;;;5182525;28;20180;-47
2023/05/19 07:26:33;;;;;;;2.17;1.90;;;22.30;42.40;;;;;;5196815;28;20208;-46
2023/05/19 07:29:04;;;;;;;2.40;2.23;;;22.80;43.10;;;;;;5199735;28;20171;-47
2023/05/19 07:31:34;;;;;;;7.53;2.13;;;24.10;40.60;;;;;;5181387;28;20667;-46
2023/05/19 07:34:05;;;;;;;5.30;2.63;;;25.20;39.10;;;;;;5198877;28;20191;-46
2023/05/19 07:36:36;;;;;;;2.17;2.13;;;24.50;39.80;;;;;;5197970;28;20210;-48
2023/05/19 07:39:06;;;;;;;9.40;2.23;;;24.30;39.40;;;;;;5183976;28;20203;-46
2023/05/19 07:41:37;;;;;;;3.13;1.60;;;23.60;40.60;;;;;;5196469;28;20195;-46
2023/05/19 07:44:09;;;;;;;6.53;2.13;;;22.70;40.90;;;;;;5199155;28;20188;-46
2023/05/19 07:46:40;;;;;;;2.20;2.00;;;22.30;42.00;;;;;;5198977;28;20719;-46
2023/05/19 07:49:10;;;;;;;8.63;2.90;;;22.40;42.60;;;;;;5199219;28;20430;-47
2023/05/19 07:51:41;;;;;;;2.80;1.90;;;22.60;42.00;;;;;;5199551;28;20798;-46
2023/05/19 07:54:11;;;;;;;2.90;1.90;;;22.70;42.00;;;;;;5199317;28;20180;-46
2023/05/19 07:56:42;;;;;;;6.77;2.77;;;23.60;40.90;;;;;;5200410;28;20253;-47
2023/05/19 07:59:14;;;;;;;9.13;3.40;;;24.20;39.60;;;;;;5185546;28;20192;-45
2023/05/19 08:01:45;;;;;;;6.17;2.27;;;23.90;38.10;;;;;;5201733;28;20187;-45
2023/05/19 08:04:15;;;;;;;6.30;2.00;;;23.50;39.60;;;;;;5198625;28;20441;-45
2023/05/19 08:06:46;;;;;;;2.70;2.30;;;23.70;40.00;;;;;;5194656;28;20219;-49
2023/05/19 08:09:17;;;;;;;2.20;2.00;;;24.00;39.20;;;;;;5195823;28;20176;-46
2023/05/19 08:11:48;;;;;;;2.60;2.40;;;24.50;39.50;;;;;;5202384;28;20190;-46
2023/05/19 08:14:21;;;;;;;4.00;2.50;;;25.60;36.50;;;;;;5202763;28;20532;-46
2023/05/19 08:16:52;;;;;;;2.27;2.07;;;25.80;36.30;;;;;;5200624;28;20485;-47
2023/05/19 08:19:22;;;;;;;6.43;2.33;;;25.60;36.30;;;;;;5200642;28;20450;-45
2023/05/19 08:21:53;;;;;;;3.23;2.40;;;25.20;36.60;;;;;;5183839;28;20198;-48
2023/05/19 08:24:23;;;;;;;5.30;2.90;;;25.10;37.10;;;;;;5200376;28;20234;-46
2023/05/19 08:26:54;;;;;;;5.10;2.37;;;24.90;36.80;;;;;;5202422;28;20294;-46
2023/05/19 08:29:25;;;;;;;9.43;2.67;;;24.30;37.00;;;;;;5201891;28;20226;-47
2023/05/19 08:31:57;;;;;;;2.43;2.23;;;23.30;39.00;;;;;;5202244;28;20842;-46
2023/05/19 08:34:27;;;;;;;2.53;2.40;;;22.80;39.70;;;;;;5200975;28;20550;-48
2023/05/19 08:36:58;;;;;;;2.63;2.43;;;23.10;40.10;;;;;;5198954;28;20466;-47
2023/05/19 08:39:29;;;;;;;3.33;1.90;;;23.60;39.40;;;;;;5199588;28;20246;-46
2023/05/19 08:42:01;;;;;;;5.80;2.07;;;24.10;38.50;;;;;;5199367;28;20187;-45
2023/05/19 08:44:32;;;;;;;2.47;2.27;;;23.80;38.40;;;;;;5199517;28;20200;-46
2023/05/19 08:47:11;;;;;;;4.33;2.37;;;23.10;39.30;;;;;;5199688;28;20539;-46
2023/05/19 08:49:44;;;;;;;1.93;1.83;;;22.20;40.20;;;;;;5199676;28;20214;-46
2023/05/19 08:52:45;;;;;;;6.80;2.47;;;20.70;42.40;;;;;;5198733;28;20521;-47
2023/05/19 08:55:35;;;;;;;5.57;2.00;;;19.60;44.10;;;;;;5196763;28;20434;-47
2023/05/19 08:58:07;;;;;;;2.07;1.87;;;19.10;45.10;;;;;;5201808;28;20442;-53
2023/05/19 09:00:38;;;;;;;4.90;1.67;;;18.80;44.40;;;;;;5197147;28;20434;-47
2023/05/19 09:03:09;;;;;;;2.70;1.60;;;18.70;45.50;;;;;;5194959;28;20492;-47
2023/05/19 09:05:41;;;;;;;4.90;1.60;;;18.80;44.90;;;;;;5197664;28;20203;-47
2023/05/19 09:08:12;;;;;;;1.40;1.40;;;18.70;45.00;;;;;;5194974;28;20441;-47
2023/05/19 09:10:43;;;;;;;3.40;1.63;;;18.60;44.70;;;;;;5198565;28;20442;-47
2023/05/19 09:13:13;;;;;;;2.00;1.80;;;18.50;45.50;;;;;;5196827;28;21154;-46
2023/05/19 09:15:44;;;;;;;11.60;2.00;;;18.30;45.60;;;;;;5194398;28;20510;-47
2023/05/19 09:18:15;;;;;;;2.53;1.70;;;18.40;46.40;;;;;;5200715;28;20184;-46
2023/05/19 09:20:46;;;;;;;3.10;2.17;;;18.60;45.90;;;;;;5195169;28;20496;-45
2023/05/19 09:23:17;;;;;;;2.20;1.57;;;18.80;45.80;;;;;;5200257;28;20279;-47
2023/05/19 09:25:51;;;;;;;1.30;1.20;;;18.70;45.10;;;;;;5199215;28;20227;-46
2023/05/19 09:28:32;;;;;;;2.93;1.60;;;18.60;44.70;;;;;;5200934;28;20265;-47
2023/05/19 09:31:07;;;;;;;2.27;1.80;;;18.50;45.50;;;;;;5200963;28;20434;-48
2023/05/19 09:33:39;;;;;;;4.80;1.20;;;18.40;45.40;;;;;;5199173;28;20439;-46
2023/05/19 09:36:10;;;;;;;2.13;1.10;;;18.40;45.10;;;;;;5195505;28;20553;-46
2023/05/19 09:38:41;;;;;;;1.50;1.40;;;18.40;45.30;;;;;;5195690;28;20447;-45
2023/05/19 09:41:13;;;;;;;2.10;1.40;;;18.70;45.70;;;;;;5200482;28;21491;-47
2023/05/19 09:43:53;;;;;;;1.23;1.10;;;18.90;44.90;;;;;;5199915;28;20446;-47
2023/05/19 09:46:27;;;;;;;6.73;1.30;;;18.60;43.90;;;;;;5197841;28;20476;-46
2023/05/19 09:48:57;;;;;;;1.17;1.03;;;18.30;44.20;;;;;;5200569;28;20457;-48
2023/05/19 09:51:28;;;;;;;1.03;1.00;;;17.90;44.50;;;;;;5201027;28;20533;-47
2023/05/19 09:53:59;;;;;;;2.57;1.30;;;17.90;44.90;;;;;;5197190;28;20233;-47
2023/05/19 09:56:36;;;;;;;1.67;1.10;;;17.80;45.10;;;;;;5201369;28;20242;-45
2023/05/19 09:59:07;;;;;;;2.93;1.50;;;17.80;45.60;;;;;;5198577;28;20195;-47
2023/05/19 10:01:40;;;;;;;0.93;0.93;;;18.10;46.10;;;;;;5199718;28;20426;-47
2023/05/19 10:04:13;;;;;;;2.17;1.20;;;18.30;45.90;;;;;;5195538;28;20206;-47
2023/05/19 10:06:44;;;;;;;2.47;1.27;;;18.40;44.60;;;;;;5195131;28;20474;-46
2023/05/19 10:09:16;;;;;;;2.13;1.00;;;18.50;44.70;;;;;;5191964;28;21180;-47
2023/05/19 10:11:47;;;;;;;4.40;1.50;;;18.50;44.50;;;;;;5193550;28;20470;-47
2023/05/19 10:14:23;;;;;;;1.50;1.47;;;18.50;44.90;;;;;;5195892;28;20504;-45
2023/05/19 10:16:58;;;;;;;2.30;1.70;;;18.30;44.90;;;;;;5193325;28;20914;-46
2023/05/19 10:19:29;;;;;;;1.07;1.07;;;18.30;45.00;;;;;;5187484;28;20443;-46
2023/05/19 10:21:59;;;;;;;2.30;0.97;;;18.20;44.60;;;;;;5194402;28;20503;-48
2023/05/19 10:24:30;;;;;;;4.33;1.00;;;18.50;45.20;;;;;;5209576;28;20733;-48
2023/05/19 10:27:11;;;;;;;1.03;1.03;;;18.60;44.00;;;;;;5196218;28;20226;-46
2023/05/19 10:29:49;;;;;;;1.00;1.00;;;18.60;43.90;;;;;;5197855;28;20576;-47
2023/05/19 10:32:23;;;;;;;1.20;1.10;;;18.60;44.00;;;;;;5190401;28;20442;-46
2023/05/19 10:35:39;;;;;;;1.37;1.37;;;18.70;44.30;;;;;;5197210;28;21048;-46
2023/05/19 10:38:48;;;;;;;1.00;0.73;;;18.70;43.60;;;;;;5138745;28;20452;-46
2023/05/19 10:41:42;;;;;;;12.40;1.10;;;18.60;43.50;;;;;;5174492;28;20591;-47
2023/05/19 10:44:39;;;;;;;0.90;0.90;;;18.40;43.00;;;;;;5198349;28;20457;-47
2023/05/19 10:47:10;;;;;;;1.77;0.80;;;18.40;44.50;;;;;;5200030;28;20846;-46
2023/05/19 10:49:41;;;;;;;1.60;1.27;;;18.20;44.20;;;;;;5201300;28;20846;-47
2023/05/19 10:52:20;;;;;;;3.90;1.60;;;18.10;44.80;;;;;;5199496;28;20492;-46
2023/05/19 10:54:53;;;;;;;2.10;1.17;;;18.10;44.40;;;;;;5216407;28;20739;-47
2023/05/19 10:57:27;;;;;;;2.37;1.03;;;18.10;44.10;;;;;;5200754;28;20942;-46
2023/05/19 11:00:05;;;;;;;1.23;0.90;;;18.30;44.30;;;;;;5198898;28;20450;-47
2023/05/19 11:02:39;;;;;;;2.30;1.10;;;18.20;44.10;;;;;;5195421;28;20473;-47
2023/05/19 11:05:16;;;;;;;1.40;1.40;;;18.30;44.10;;;;;;5196370;28;20512;-46
2023/05/19 11:08:03;;;;;;;3.87;1.40;;;18.40;44.10;;;;;;5192104;28;20547;-48
2023/05/19 11:10:34;;;;;;;2.33;0.93;;;18.40;44.00;;;;;;5200578;28;20446;-46
2023/05/19 11:13:05;;;;;;;1.20;1.20;;;18.30;44.50;;;;;;5196641;28;20543;-46
2023/05/19 11:15:36;;;;;;;2.93;1.30;;;18.40;44.80;;;;;;5197268;28;20183;-47
2023/05/19 11:18:06;;;;;;;2.17;1.37;;;18.50;44.60;;;;;;5198089;28;20530;-46
2023/05/19 11:20:38;;;;;;;3.20;0.97;;;18.50;44.90;;;;;;5198264;28;20438;-47
2023/05/19 11:23:13;;;;;;;1.67;1.00;;;18.60;44.70;;;;;;5196312;28;20191;-47
2023/05/19 11:25:45;;;;;;;1.40;0.90;;;18.60;43.90;;;;;;5188617;28;20466;-48
2023/05/19 11:28:18;;;;;;;1.00;0.97;;;18.60;43.60;;;;;;5196982;28;20520;-47
2023/05/19 11:30:50;;;;;;;0.80;0.80;;;18.80;43.60;;;;;;5199302;28;20525;-47
2023/05/19 11:33:25;;;;;;;1.60;1.50;;;19.00;43.20;;;;;;5200949;28;20491;-47
2023/05/19 11:35:57;;;;;;;1.80;1.40;;;19.00;42.90;;;;;;5199661;28;21124;-47
2023/05/19 11:38:28;;;;;;;1.20;1.10;;;19.00;43.30;;;;;;5200216;28;20515;-47
2023/05/19 11:40:59;;;;;;;1.10;1.10;;;19.10;42.50;;;;;;5202896;28;20484;-45
2023/05/19 11:43:30;;;;;;;1.33;1.23;;;18.90;43.20;;;;;;5203791;28;20953;-48
2023/05/19 11:46:01;;;;;;;5.97;1.80;;;18.80;43.40;;;;;;5203704;28;20470;-47
2023/05/19 11:48:31;;;;;;;1.70;1.10;;;18.70;43.90;;;;;;5202228;28;20238;-48
2023/05/19 11:51:02;;;;;;;1.90;1.40;;;18.70;44.00;;;;;;5202018;28;20221;-46
2023/05/19 11:53:35;;;;;;;1.90;1.27;;;18.50;44.30;;;;;;5203340;28;20219;-47
2023/05/19 11:56:05;;;;;;;1.80;1.00;;;18.60;43.60;;;;;;5203318;28;20214;-48
2023/05/19 11:58:36;;;;;;;2.00;1.40;;;18.60;43.10;;;;;;5204890;28;20934;-49
2023/05/19 12:01:09;;;;;;;1.03;0.90;;;18.50;43.20;;;;;;5202980;28;20187;-48
2023/05/19 12:03:39;;;;;;;0.80;0.80;;;18.50;43.00;;;;;;5201156;28;20254;-47
2023/05/19 12:06:10;;;;;;;0.80;0.80;;;18.60;43.40;;;;;;5206821;28;20469;-49
2023/05/19 12:08:41;;;;;;;2.00;1.20;;;18.60;42.90;;;;;;5203340;28;20196;-48
2023/05/19 12:11:12;;;;;;;1.00;1.00;;;18.60;43.10;;;;;;5198557;28;20844;-48
2023/05/19 12:13:43;;;;;;;4.73;1.43;;;18.50;42.70;;;;;;5192906;28;20188;-48
2023/05/19 12:16:14;;;;;;;2.73;1.53;;;18.40;42.90;;;;;;5193636;28;21217;-46
2023/05/19 12:18:44;;;;;;;1.57;0.70;;;18.50;43.10;;;;;;5198387;28;20533;-48
2023/05/19 12:21:16;;;;;;;1.37;1.37;;;18.50;42.70;;;;;;5200507;28;20211;-46
2023/05/19 12:23:46;;;;;;;1.00;0.90;;;18.60;42.80;;;;;;5197471;28;20184;-46
2023/05/19 12:26:18;;;;;;;1.93;0.83;;;18.50;42.50;;;;;;5192896;28;20845;-49
2023/05/19 12:28:51;;;;;;;3.23;1.10;;;18.50;42.70;;;;;;5180798;28;20269;-48
2023/05/19 12:31:22;;;;;;;3.23;1.27;;;18.50;42.60;;;;;;5191603;28;20536;-46
2023/05/19 12:33:54;;;;;;;2.30;1.30;;;18.70;42.80;;;;;;5192402;28;20438;-47
2023/05/19 12:36:27;;;;;;;1.90;0.93;;;18.80;41.80;;;;;;5192824;28;21012;-47
2023/05/19 12:38:58;;;;;;;10.50;1.80;;;19.10;41.90;;;;;;5193204;28;20434;-50
2023/05/19 12:41:28;;;;;;;5.83;1.43;;;19.30;41.80;;;;;;5196680;28;20441;-46
2023/05/19 12:43:59;;;;;;;1.00;1.00;;;19.40;41.60;;;;;;5197090;28;20362;-46
2023/05/19 12:46:32;;;;;;;1.47;1.37;;;19.20;41.30;;;;;;5197237;28;20226;-46
2023/05/19 12:49:03;;;;;;;1.23;1.03;;;18.90;42.40;;;;;;5197117;28;20275;-46
2023/05/19 12:51:35;;;;;;;0.93;0.80;;;18.90;43.00;;;;;;5200882;28;20537;-47
2023/05/19 12:54:06;;;;;;;1.20;1.20;;;18.90;42.90;;;;;;5194669;28;20184;-46
2023/05/19 12:56:36;;;;;;;1.03;1.03;;;18.80;42.40;;;;;;5197376;28;20457;-47
2023/05/19 12:59:07;;;;;;;2.13;1.50;;;18.80;42.00;;;;;;5200936;28;20188;-47
2023/05/19 13:01:37;;;;;;;1.30;1.20;;;18.70;42.50;;;;;;5197287;28;20283;-48
2023/05/19 13:04:08;;;;;;;1.23;1.23;;;18.70;42.90;;;;;;5192907;28;20187;-46
2023/05/19 13:06:40;;;;;;;1.50;1.40;;;18.70;43.30;;;;;;5197440;28;20208;-49
2023/05/19 13:09:11;;;;;;;1.70;1.07;;;18.70;43.50;;;;;;5185573;28;20274;-46
2023/05/19 13:11:42;;;;;;;3.30;1.10;;;18.90;43.30;;;;;;5201415;28;20620;-50
2023/05/19 13:14:14;;;;;;;1.13;1.07;;;19.10;42.80;;;;;;5198426;28;20710;-46
2023/05/19 13:16:45;;;;;;;2.87;1.67;;;19.20;43.00;;;;;;5201092;28;20523;-48
2023/05/19 13:19:18;;;;;;;1.03;1.03;;;19.10;43.10;;;;;;5202914;28;20441;-47